createdAt,value
2017-11-09T00:00:07.751Z,140.80
2017-11-09T00:01:07.971Z,140.40
2017-11-09T00:02:07.774Z,138.10
2017-11-09T00:03:07.704Z,139.60
2017-11-09T00:04:07.801Z,142.40
2017-11-09T00:05:07.629Z,150.10
2017-11-09T00:06:07.816Z,140.60
2017-11-09T00:07:09.874Z,135.10
2017-11-09T00:08:07.939Z,131.20
2017-11-09T00:09:08.170Z,137.00
2017-11-09T00:10:07.543Z,147.80
2017-11-09T00:11:08.000Z,136.70
2017-11-09T00:12:07.935Z,137.40
2017-11-09T00:13:08.169Z,141.90
2017-11-09T00:14:07.469Z,140.10
2017-11-09T00:15:07.534Z,142.10
2017-11-09T00:16:07.460Z,142.50
2017-11-09T00:17:08.554Z,137.70
2017-11-09T00:18:07.904Z,138.90
2017-11-09T00:19:08.218Z,137.10
2017-11-09T00:20:07.348Z,137.40
2017-11-09T00:21:07.583Z,130.90
2017-11-09T00:22:07.966Z,138.20
2017-11-09T00:23:08.337Z,133.30
2017-11-09T00:24:08.654Z,144.60
2017-11-09T00:25:08.127Z,135.50
2017-11-09T00:26:07.334Z,141.10
2017-11-09T00:27:07.026Z,138.00
2017-11-09T00:28:07.710Z,138.10
2017-11-09T00:29:07.538Z,141.30
2017-11-09T00:30:07.399Z,137.90
2017-11-09T00:31:07.223Z,138.40
2017-11-09T00:32:07.326Z,144.10
2017-11-09T00:33:07.659Z,129.20
2017-11-09T00:34:07.827Z,138.60
2017-11-09T00:35:07.800Z,138.00
2017-11-09T00:36:07.531Z,134.60
2017-11-09T00:37:07.327Z,127.70
2017-11-09T00:38:07.183Z,129.50
2017-11-09T00:39:07.443Z,133.50
2017-11-09T00:40:07.912Z,139.10
2017-11-09T00:41:07.704Z,132.80
2017-11-09T00:42:07.993Z,150.10
2017-11-09T00:43:07.932Z,141.30
2017-11-09T00:44:07.408Z,142.80
2017-11-09T00:45:07.806Z,141.30
2017-11-09T00:46:08.226Z,137.80
2017-11-09T00:47:07.135Z,141.10
2017-11-09T00:48:06.934Z,140.40
2017-11-09T00:49:08.167Z,135.70
2017-11-09T00:50:07.605Z,145.20
2017-11-09T00:51:08.032Z,137.50
2017-11-09T00:52:08.557Z,137.10
2017-11-09T00:53:07.960Z,141.30
2017-11-09T00:54:08.289Z,133.10
2017-11-09T00:55:07.158Z,145.60
2017-11-09T00:56:07.509Z,135.50
2017-11-09T00:57:07.798Z,133.90
2017-11-09T00:58:08.206Z,138.30
2017-11-09T00:59:07.791Z,145.10
2017-11-09T01:00:07.134Z,133.60
2017-11-09T01:01:08.096Z,136.00
2017-11-09T01:02:08.029Z,142.70
2017-11-09T01:03:08.220Z,137.10
2017-11-09T01:04:07.746Z,145.90
2017-11-09T01:05:08.222Z,137.90
2017-11-09T01:06:07.533Z,133.40
2017-11-09T01:07:07.375Z,136.90
2017-11-09T01:08:09.084Z,151.10
2017-11-09T01:09:08.181Z,139.60
2017-11-09T01:10:07.514Z,134.10
2017-11-09T01:11:08.350Z,140.40
2017-11-09T01:12:07.688Z,136.80
2017-11-09T01:13:07.824Z,136.30
2017-11-09T01:14:08.093Z,144.50
2017-11-09T01:15:09.382Z,136.20
2017-11-09T01:16:07.752Z,137.20
2017-11-09T01:17:08.161Z,137.60
2017-11-09T01:18:07.404Z,141.40
2017-11-09T01:19:07.905Z,144.00
2017-11-09T01:20:08.158Z,138.50
2017-11-09T01:21:07.010Z,141.40
2017-11-09T01:22:08.363Z,130.90
2017-11-09T01:23:07.204Z,130.50
2017-11-09T01:24:07.662Z,141.30
2017-11-09T01:25:08.159Z,131.50
2017-11-09T01:26:07.532Z,138.80
2017-11-09T01:27:08.337Z,140.00
2017-11-09T01:28:07.482Z,144.80
2017-11-09T01:29:07.273Z,136.40
2017-11-09T01:30:07.219Z,143.30
2017-11-09T01:31:07.066Z,129.10
2017-11-09T01:32:07.913Z,132.80
2017-11-09T01:33:08.180Z,133.10
2017-11-09T01:34:07.062Z,132.50
2017-11-09T01:35:07.988Z,136.40
2017-11-09T01:36:07.482Z,148.50
2017-11-09T01:37:07.921Z,141.50
2017-11-09T01:38:07.800Z,130.30
2017-11-09T01:39:07.836Z,149.50
2017-11-09T01:40:08.363Z,136.50
2017-11-09T01:41:07.265Z,132.60
2017-11-09T01:42:07.599Z,127.40
2017-11-09T01:43:07.426Z,137.00
2017-11-09T01:44:07.149Z,131.30
2017-11-09T01:45:08.158Z,134.20
2017-11-09T01:46:08.229Z,140.10
2017-11-09T01:47:06.966Z,145.30
2017-11-09T01:48:07.712Z,134.20
2017-11-09T01:49:07.623Z,137.70
2017-11-09T01:50:07.852Z,135.60
2017-11-09T01:51:07.627Z,141.80
2017-11-09T01:52:07.489Z,135.20
2017-11-09T01:53:07.021Z,136.00
2017-11-09T01:54:07.860Z,145.60
2017-11-09T01:55:08.213Z,145.50
2017-11-09T01:56:06.942Z,132.70
2017-11-09T01:57:08.007Z,142.70
2017-11-09T01:58:08.152Z,132.90
2017-11-09T01:59:06.923Z,137.80
2017-11-09T02:00:07.644Z,141.20
2017-11-09T02:01:07.500Z,128.90
2017-11-09T02:02:07.322Z,136.00
2017-11-09T02:03:07.185Z,143.80
2017-11-09T02:04:07.329Z,136.90
2017-11-09T02:05:07.472Z,137.80
2017-11-09T02:06:07.835Z,133.70
2017-11-09T02:07:07.784Z,137.40
2017-11-09T02:08:07.580Z,126.20
2017-11-09T02:09:07.385Z,138.90
2017-11-09T02:10:07.136Z,140.80
2017-11-09T02:11:08.267Z,132.90
2017-11-09T02:12:07.365Z,138.20
2017-11-09T02:13:07.481Z,142.80
2017-11-09T02:14:07.319Z,136.30
2017-11-09T02:15:07.777Z,133.60
2017-11-09T02:16:07.684Z,133.10
2017-11-09T02:17:08.057Z,132.30
2017-11-09T02:18:07.726Z,132.50
2017-11-09T02:19:07.728Z,143.60
2017-11-09T02:20:07.642Z,129.00
2017-11-09T02:21:08.112Z,138.40
2017-11-09T02:22:07.513Z,134.20
2017-11-09T02:23:07.690Z,142.70
2017-11-09T02:24:07.461Z,139.50
2017-11-09T02:25:07.241Z,139.80
2017-11-09T02:26:06.978Z,135.70
2017-11-09T02:27:08.442Z,136.20
2017-11-09T02:28:07.217Z,147.00
2017-11-09T02:29:07.323Z,146.70
2017-11-09T02:30:07.628Z,145.90
2017-11-09T02:31:08.032Z,149.10
2017-11-09T02:32:08.273Z,148.10
2017-11-09T02:33:07.224Z,159.50
2017-11-09T02:34:06.969Z,161.50
2017-11-09T02:35:08.304Z,137.90
2017-11-09T02:36:06.947Z,167.00
2017-11-09T02:37:07.645Z,152.10
2017-11-09T02:38:07.806Z,164.70
2017-11-09T02:39:07.709Z,160.70
2017-11-09T02:40:07.863Z,148.90
2017-11-09T02:41:08.045Z,148.90
2017-11-09T02:42:08.429Z,151.90
2017-11-09T02:43:07.459Z,158.10
2017-11-09T02:44:07.971Z,162.20
2017-11-09T02:45:07.965Z,152.90
2017-11-09T02:46:08.127Z,162.40
2017-11-09T02:47:07.619Z,157.80
2017-11-09T02:48:07.799Z,166.80
2017-11-09T02:49:08.151Z,149.50
2017-11-09T02:50:08.151Z,153.00
2017-11-09T02:51:06.931Z,163.70
2017-11-09T02:52:07.606Z,161.70
2017-11-09T02:53:07.454Z,140.10
2017-11-09T02:54:07.878Z,150.20
2017-11-09T02:55:08.191Z,146.70
2017-11-09T02:56:08.175Z,145.20
2017-11-09T02:57:07.629Z,144.50
2017-11-09T02:58:07.367Z,144.10
2017-11-09T02:59:23.403Z,147.80
2017-11-09T03:00:23.711Z,145.90
2017-11-09T03:01:23.575Z,154.70
2017-11-09T03:02:23.703Z,148.80
2017-11-09T03:03:23.553Z,156.30
2017-11-09T03:04:24.176Z,147.00
2017-11-09T03:05:23.533Z,146.30
2017-11-09T03:06:23.322Z,139.70
2017-11-09T03:07:23.716Z,145.30
2017-11-09T03:08:23.810Z,150.60
2017-11-09T03:09:23.564Z,143.30
2017-11-09T03:10:24.022Z,139.10
2017-11-09T03:11:22.798Z,145.70
2017-11-09T03:12:23.592Z,147.70
2017-11-09T03:13:23.311Z,146.70
2017-11-09T03:14:23.065Z,147.90
2017-11-09T03:15:23.502Z,144.50
2017-11-09T03:16:23.699Z,155.90
2017-11-09T03:17:23.417Z,155.50
2017-11-09T03:18:23.791Z,152.50
2017-11-09T03:19:23.674Z,150.10
2017-11-09T03:20:23.457Z,161.90
2017-11-09T03:21:23.221Z,161.60
2017-11-09T03:22:23.410Z,162.10
2017-11-09T03:23:23.533Z,173.70
2017-11-09T03:24:23.959Z,182.40
2017-11-09T03:25:22.652Z,164.70
2017-11-09T03:26:23.971Z,178.00
2017-11-09T03:27:23.273Z,166.60
2017-11-09T03:28:22.906Z,175.10
2017-11-09T03:29:22.626Z,170.10
2017-11-09T03:30:23.422Z,172.50
2017-11-09T03:31:23.232Z,179.00
2017-11-09T03:32:23.805Z,165.40
2017-11-09T03:33:23.741Z,188.00
2017-11-09T03:34:24.068Z,194.00
2017-11-09T03:35:23.905Z,254.40
2017-11-09T03:36:23.958Z,189.40
2017-11-09T03:37:23.885Z,184.10
2017-11-09T03:38:23.159Z,190.00
2017-11-09T03:39:23.548Z,176.90
2017-11-09T03:40:23.744Z,180.10
2017-11-09T03:41:23.450Z,184.10
2017-11-09T03:42:23.753Z,180.00
2017-11-09T03:43:24.157Z,175.80
2017-11-09T03:44:22.880Z,169.90
2017-11-09T03:45:23.169Z,173.50
2017-11-09T03:46:22.920Z,178.60
2017-11-09T03:47:23.119Z,189.60
2017-11-09T03:48:22.838Z,179.10
2017-11-09T03:49:24.017Z,179.20
2017-11-09T03:50:23.360Z,195.10
2017-11-09T03:51:23.713Z,184.00
2017-11-09T03:52:23.894Z,187.70
2017-11-09T03:53:23.216Z,175.90
2017-11-09T03:54:23.288Z,182.20
2017-11-09T03:55:23.596Z,180.40
2017-11-09T03:56:23.850Z,184.20
2017-11-09T03:57:24.057Z,181.60
2017-11-09T03:58:23.549Z,170.00
2017-11-09T03:59:23.745Z,183.20
2017-11-09T04:00:24.325Z,193.90
2017-11-09T04:01:23.507Z,184.90
2017-11-09T04:02:22.730Z,179.10
2017-11-09T04:03:23.873Z,194.10
2017-11-09T04:04:22.943Z,190.70
2017-11-09T04:05:22.777Z,195.50
2017-11-09T04:06:23.331Z,197.80
2017-11-09T04:07:23.575Z,194.00
2017-11-09T04:08:23.997Z,208.80
2017-11-09T04:09:22.894Z,197.30
2017-11-09T04:10:23.356Z,206.10
2017-11-09T04:11:23.981Z,187.50
2017-11-09T04:12:22.784Z,198.30
2017-11-09T04:13:22.719Z,189.20
2017-11-09T04:14:23.769Z,202.90
2017-11-09T04:15:22.787Z,199.60
2017-11-09T04:16:23.298Z,214.60
2017-11-09T04:17:23.659Z,210.30
2017-11-09T04:18:23.749Z,215.30
2017-11-09T04:19:23.500Z,214.40
2017-11-09T04:20:23.251Z,222.90
2017-11-09T04:21:24.383Z,225.40
2017-11-09T04:22:23.488Z,207.60
2017-11-09T04:23:23.670Z,231.40
2017-11-09T04:24:24.084Z,222.10
2017-11-09T04:25:23.572Z,220.40
2017-11-09T04:26:24.037Z,205.70
2017-11-09T04:27:23.567Z,201.70
2017-11-09T04:28:23.422Z,203.70
2017-11-09T04:29:23.725Z,204.40
2017-11-09T04:30:23.564Z,202.60
2017-11-09T04:31:23.490Z,208.50
2017-11-09T04:32:23.561Z,206.60
2017-11-09T04:33:23.454Z,215.90
2017-11-09T04:34:23.880Z,214.40
2017-11-09T04:35:23.338Z,217.00
2017-11-09T04:36:23.857Z,204.30
2017-11-09T04:37:22.827Z,219.80
2017-11-09T04:38:23.649Z,208.50
2017-11-09T04:39:24.079Z,207.70
2017-11-09T04:40:23.341Z,196.90
2017-11-09T04:41:23.646Z,197.20
2017-11-09T04:42:23.766Z,200.20
2017-11-09T04:43:22.805Z,212.50
2017-11-09T04:44:23.327Z,223.90
2017-11-09T04:45:23.562Z,214.60
2017-11-09T04:46:23.837Z,233.10
2017-11-09T04:47:23.484Z,230.20
2017-11-09T04:48:23.811Z,224.40
2017-11-09T04:49:23.311Z,233.60
2017-11-09T04:50:23.649Z,219.50
2017-11-09T04:51:22.779Z,232.70
2017-11-09T04:52:23.330Z,226.50
2017-11-09T04:53:23.138Z,233.50
2017-11-09T04:54:23.824Z,232.80
2017-11-09T04:55:22.913Z,235.30
2017-11-09T04:56:23.580Z,229.70
2017-11-09T04:57:23.509Z,233.30
2017-11-09T04:58:24.074Z,242.30
2017-11-09T04:59:24.180Z,254.70
2017-11-09T05:00:23.049Z,237.60
2017-11-09T05:01:23.046Z,236.60
2017-11-09T05:02:23.937Z,230.00
2017-11-09T05:03:23.051Z,237.80
2017-11-09T05:04:23.857Z,243.40
2017-11-09T05:05:22.816Z,259.50
2017-11-09T05:06:23.159Z,277.80
2017-11-09T05:07:23.546Z,272.40
2017-11-09T05:08:22.894Z,282.20
2017-11-09T05:09:23.770Z,272.20
2017-11-09T05:10:23.788Z,242.60
2017-11-09T05:11:22.892Z,251.50
2017-11-09T05:12:24.277Z,270.60
2017-11-09T05:13:23.125Z,265.10
2017-11-09T05:14:23.417Z,274.70
2017-11-09T05:15:23.693Z,250.90
2017-11-09T05:16:22.912Z,245.90
2017-11-09T05:17:22.695Z,239.90
2017-11-09T05:18:23.737Z,241.60
2017-11-09T05:19:24.832Z,245.70
2017-11-09T05:20:23.488Z,242.90
2017-11-09T05:21:24.540Z,233.40
2017-11-09T05:22:24.266Z,254.40
2017-11-09T05:23:23.629Z,243.00
2017-11-09T05:24:23.917Z,250.90
2017-11-09T05:25:22.772Z,237.60
2017-11-09T05:26:22.905Z,251.10
2017-11-09T05:27:23.517Z,235.70
2017-11-09T05:28:24.074Z,250.70
2017-11-09T05:29:23.514Z,257.80
2017-11-09T05:30:23.739Z,245.50
2017-11-09T05:31:23.042Z,255.50
2017-11-09T05:32:22.992Z,254.70
2017-11-09T05:33:23.257Z,243.70
2017-11-09T05:34:23.700Z,250.70
2017-11-09T05:35:23.922Z,250.40
2017-11-09T05:36:23.308Z,257.20
2017-11-09T05:37:23.822Z,255.50
2017-11-09T05:38:25.950Z,255.80
2017-11-09T05:39:26.054Z,267.80
2017-11-09T05:40:23.577Z,252.60
2017-11-09T05:41:23.821Z,252.70
2017-11-09T05:42:23.087Z,237.70
2017-11-09T05:43:24.043Z,245.20
2017-11-09T05:44:23.458Z,243.90
2017-11-09T05:45:24.445Z,227.70
2017-11-09T05:46:23.659Z,231.60
2017-11-09T05:47:23.678Z,232.30
2017-11-09T05:48:23.784Z,218.30
2017-11-09T05:49:23.484Z,214.20
2017-11-09T05:50:23.599Z,235.10
2017-11-09T05:51:23.761Z,228.50
2017-11-09T05:52:23.973Z,229.30
2017-11-09T05:53:23.085Z,233.20
2017-11-09T05:54:23.591Z,218.60
2017-11-09T05:55:24.568Z,222.50
2017-11-09T05:56:23.842Z,225.70
2017-11-09T05:57:24.671Z,220.00
2017-11-09T05:58:23.683Z,220.90
2017-11-09T05:59:23.492Z,209.80
2017-11-09T06:00:23.993Z,222.70
2017-11-09T06:01:23.384Z,222.90
2017-11-09T06:02:24.730Z,216.70
2017-11-09T06:03:24.282Z,206.80
2017-11-09T06:04:23.905Z,223.00
2017-11-09T06:05:23.965Z,219.10
2017-11-09T06:06:23.973Z,235.20
2017-11-09T06:07:24.119Z,236.90
2017-11-09T06:08:24.018Z,241.80
2017-11-09T06:09:22.715Z,235.40
2017-11-09T06:10:24.076Z,239.00
2017-11-09T06:11:24.006Z,241.20
2017-11-09T06:12:23.467Z,248.10
2017-11-09T06:13:23.296Z,233.10
2017-11-09T06:14:23.631Z,231.30
2017-11-09T06:15:23.513Z,220.90
2017-11-09T06:16:23.146Z,234.60
2017-11-09T06:17:23.493Z,224.70
2017-11-09T06:18:23.844Z,221.30
2017-11-09T06:19:23.362Z,222.20
2017-11-09T06:20:23.766Z,225.60
2017-11-09T06:21:23.985Z,235.10
2017-11-09T06:22:23.377Z,240.70
2017-11-09T06:23:23.698Z,237.10
2017-11-09T06:24:23.651Z,237.70
2017-11-09T06:25:23.975Z,243.00
2017-11-09T06:26:23.462Z,248.00
2017-11-09T06:27:24.498Z,238.50
2017-11-09T06:28:23.702Z,224.90
2017-11-09T06:29:24.508Z,241.90
2017-11-09T06:30:24.046Z,254.90
2017-11-09T06:31:23.522Z,335.90
2017-11-09T06:32:23.794Z,267.20
2017-11-09T06:33:24.215Z,176.20
2017-11-09T06:34:23.884Z,157.40
2017-11-09T06:35:23.487Z,177.50
2017-11-09T06:36:23.613Z,183.90
2017-11-09T06:37:23.725Z,197.20
2017-11-09T06:38:24.033Z,202.90
2017-11-09T06:39:23.015Z,206.10
2017-11-09T06:40:22.882Z,192.80
2017-11-09T06:41:23.458Z,201.30
2017-11-09T06:42:23.517Z,205.20
2017-11-09T06:43:24.075Z,215.30
2017-11-09T06:44:23.621Z,199.00
2017-11-09T06:45:22.864Z,207.50
2017-11-09T06:46:23.747Z,202.20
2017-11-09T06:47:23.858Z,211.20
2017-11-09T06:48:24.299Z,208.10
2017-11-09T06:49:23.448Z,221.70
2017-11-09T06:50:23.454Z,217.30
2017-11-09T06:51:23.612Z,222.40
2017-11-09T06:52:23.464Z,221.70
2017-11-09T06:53:23.711Z,220.80
2017-11-09T06:54:23.687Z,236.10
2017-11-09T06:55:23.316Z,227.30
2017-11-09T06:56:23.419Z,219.90
2017-11-09T06:57:23.727Z,216.30
2017-11-09T06:58:23.747Z,203.20
2017-11-09T06:59:24.137Z,213.80
2017-11-09T07:00:23.760Z,240.70
2017-11-09T07:01:23.966Z,233.70
2017-11-09T07:02:22.882Z,207.30
2017-11-09T07:03:23.318Z,211.20
2017-11-09T07:04:23.534Z,215.90
2017-11-09T07:05:24.293Z,209.00
2017-11-09T07:06:23.551Z,215.40
2017-11-09T07:07:24.076Z,204.00
2017-11-09T07:08:24.743Z,230.30
2017-11-09T07:09:24.117Z,216.80
2017-11-09T07:10:23.734Z,200.50
2017-11-09T07:11:24.191Z,205.80
2017-11-09T07:12:23.568Z,214.20
2017-11-09T07:13:24.167Z,206.50
2017-11-09T07:14:24.079Z,211.40
2017-11-09T07:15:23.852Z,214.30
2017-11-09T07:16:23.632Z,207.20
2017-11-09T07:17:22.989Z,230.50
2017-11-09T07:18:23.093Z,208.60
2017-11-09T07:19:23.682Z,221.30
2017-11-09T07:20:23.769Z,233.20
2017-11-09T07:21:23.085Z,209.10
2017-11-09T07:22:24.385Z,216.20
2017-11-09T07:23:23.461Z,213.80
2017-11-09T07:24:24.383Z,219.50
2017-11-09T07:25:23.878Z,220.60
2017-11-09T07:26:24.189Z,232.00
2017-11-09T07:27:23.797Z,221.20
2017-11-09T07:28:23.353Z,221.90
2017-11-09T07:29:23.741Z,220.50
2017-11-09T07:30:23.933Z,212.00
2017-11-09T07:31:23.797Z,208.80
2017-11-09T07:32:24.366Z,199.80
2017-11-09T07:33:23.719Z,197.40
2017-11-09T07:34:24.132Z,222.50
2017-11-09T07:35:23.345Z,224.50
2017-11-09T07:36:23.807Z,216.10
2017-11-09T07:37:24.136Z,203.80
2017-11-09T07:38:24.587Z,193.70
2017-11-09T07:39:24.075Z,192.70
2017-11-09T07:40:23.561Z,203.80
2017-11-09T07:41:24.236Z,198.30
2017-11-09T07:42:23.577Z,201.60
2017-11-09T07:43:24.065Z,175.30
2017-11-09T07:44:23.190Z,197.80
2017-11-09T07:45:23.188Z,192.70
2017-11-09T07:46:23.844Z,200.60
2017-11-09T07:47:23.390Z,189.00
2017-11-09T07:48:23.448Z,194.20
2017-11-09T07:49:24.675Z,201.70
2017-11-09T07:50:24.305Z,194.80
2017-11-09T07:51:23.457Z,195.50
2017-11-09T07:52:24.145Z,185.70
2017-11-09T07:53:23.134Z,183.00
2017-11-09T07:54:23.126Z,173.80
2017-11-09T07:55:23.981Z,174.50
2017-11-09T07:56:23.013Z,171.30
2017-11-09T07:57:23.582Z,180.00
2017-11-09T07:58:24.934Z,187.40
2017-11-09T07:59:23.443Z,175.70
2017-11-09T08:00:23.843Z,170.50
2017-11-09T08:01:23.678Z,170.70
2017-11-09T08:02:23.819Z,174.60
2017-11-09T08:03:23.449Z,165.50
2017-11-09T08:04:23.908Z,186.50
2017-11-09T08:05:23.365Z,178.00
2017-11-09T08:06:23.615Z,182.10
2017-11-09T08:07:23.209Z,182.40
2017-11-09T08:08:23.501Z,165.30
2017-11-09T08:09:23.633Z,186.10
2017-11-09T08:10:24.155Z,196.00
2017-11-09T08:11:23.228Z,184.00
2017-11-09T08:12:23.974Z,167.70
2017-11-09T08:13:23.528Z,168.60
2017-11-09T08:14:22.940Z,183.50
2017-11-09T08:15:23.158Z,170.20
2017-11-09T08:16:23.152Z,175.40
2017-11-09T08:17:23.687Z,168.40
2017-11-09T08:18:23.998Z,184.10
2017-11-09T08:19:23.036Z,172.10
2017-11-09T08:20:23.609Z,150.00
2017-11-09T08:21:24.109Z,160.70
2017-11-09T08:22:23.552Z,165.70
2017-11-09T08:23:23.735Z,178.70
2017-11-09T08:24:23.954Z,151.20
2017-11-09T08:25:23.760Z,154.50
2017-11-09T08:26:23.529Z,164.10
2017-11-09T08:27:23.669Z,140.70
2017-11-09T08:28:23.664Z,134.80
2017-11-09T08:29:24.199Z,156.80
2017-11-09T08:30:23.832Z,147.20
2017-11-09T08:31:23.176Z,153.60
2017-11-09T08:32:23.602Z,145.20
2017-11-09T08:33:24.000Z,152.60
2017-11-09T08:34:23.126Z,161.20
2017-11-09T08:35:23.480Z,152.10
2017-11-09T08:36:23.624Z,145.60
2017-11-09T08:37:23.784Z,153.20
2017-11-09T08:38:24.131Z,149.40
2017-11-09T08:39:23.521Z,146.90
2017-11-09T08:40:24.097Z,152.20
2017-11-09T08:41:23.507Z,141.90
2017-11-09T08:42:23.638Z,144.70
2017-11-09T08:43:24.087Z,143.80
2017-11-09T08:44:23.810Z,146.00
2017-11-09T08:45:23.292Z,141.50
2017-11-09T08:46:24.537Z,144.10
2017-11-09T08:47:24.126Z,154.90
2017-11-09T08:48:23.551Z,144.90
2017-11-09T08:49:24.347Z,136.90
2017-11-09T08:50:23.494Z,141.30
2017-11-09T08:51:23.837Z,139.90
2017-11-09T08:52:23.825Z,139.40
2017-11-09T08:53:23.258Z,131.70
2017-11-09T08:54:23.388Z,143.50
2017-11-09T08:55:24.545Z,131.70
2017-11-09T08:56:23.937Z,141.70
2017-11-09T08:57:23.048Z,135.80
2017-11-09T08:58:23.164Z,139.00
2017-11-09T08:59:23.498Z,143.40
2017-11-09T09:00:23.540Z,138.30
2017-11-09T09:01:24.411Z,134.50
2017-11-09T09:02:23.567Z,130.50
2017-11-09T09:03:23.993Z,131.30
2017-11-09T09:04:23.328Z,143.10
2017-11-09T09:05:23.617Z,127.90
2017-11-09T09:06:23.666Z,133.30
2017-11-09T09:07:24.346Z,130.50
2017-11-09T09:08:23.816Z,135.00
2017-11-09T09:09:24.385Z,128.20
2017-11-09T09:10:23.607Z,133.70
2017-11-09T09:11:24.291Z,128.00
2017-11-09T09:12:23.379Z,134.80
2017-11-09T09:13:23.517Z,123.50
2017-11-09T09:14:23.516Z,116.30
2017-11-09T09:15:23.996Z,119.80
2017-11-09T09:16:23.818Z,130.50
2017-11-09T09:17:24.125Z,131.30
2017-11-09T09:18:23.240Z,126.50
2017-11-09T09:19:23.445Z,124.40
2017-11-09T09:20:23.410Z,129.80
2017-11-09T09:21:23.986Z,122.40
2017-11-09T09:22:24.793Z,117.60
2017-11-09T09:23:23.999Z,115.00
2017-11-09T09:24:23.606Z,129.40
2017-11-09T09:25:23.593Z,119.00
2017-11-09T09:26:23.838Z,126.40
2017-11-09T09:27:23.437Z,117.20
2017-11-09T09:28:24.171Z,134.90
2017-11-09T09:29:23.542Z,127.60
2017-11-09T09:30:24.000Z,130.90
2017-11-09T09:31:23.406Z,127.00
2017-11-09T09:32:23.873Z,129.80
2017-11-09T09:33:23.692Z,119.60
2017-11-09T09:34:23.667Z,127.40
2017-11-09T09:35:23.793Z,131.30
2017-11-09T09:36:23.692Z,132.20
2017-11-09T09:37:24.197Z,129.00
2017-11-09T09:38:23.411Z,126.90
2017-11-09T09:39:23.792Z,124.40
2017-11-09T09:40:23.556Z,133.40
2017-11-09T09:41:24.258Z,129.70
2017-11-09T09:42:23.920Z,126.90
2017-11-09T09:43:23.591Z,132.50
2017-11-09T09:44:23.543Z,132.20
2017-11-09T09:45:24.046Z,115.80
2017-11-09T09:46:22.969Z,131.50
2017-11-09T09:47:23.108Z,133.50
2017-11-09T09:48:23.172Z,125.10
2017-11-09T09:49:23.359Z,131.20
2017-11-09T09:50:23.277Z,132.30
2017-11-09T09:51:23.913Z,134.80
2017-11-09T09:52:23.011Z,123.80
2017-11-09T09:53:24.206Z,139.00
2017-11-09T09:54:23.075Z,124.40
2017-11-09T09:55:23.856Z,121.70
2017-11-09T09:56:23.123Z,123.90
2017-11-09T09:57:23.025Z,125.30
2017-11-09T09:58:24.352Z,124.50
2017-11-09T09:59:23.657Z,121.30
2017-11-09T10:00:24.374Z,120.40
2017-11-09T10:01:23.904Z,119.60
2017-11-09T10:02:23.896Z,116.60
2017-11-09T10:03:23.350Z,114.90
2017-11-09T10:04:23.579Z,108.90
2017-11-09T10:05:23.737Z,114.30
2017-11-09T10:06:24.222Z,110.00
2017-11-09T10:07:23.663Z,115.10
2017-11-09T10:08:23.687Z,117.40
2017-11-09T10:09:23.549Z,115.60
2017-11-09T10:10:23.921Z,110.20
2017-11-09T10:11:23.012Z,119.60
2017-11-09T10:12:24.086Z,111.40
2017-11-09T10:13:23.901Z,111.90
2017-11-09T10:14:23.486Z,108.80
2017-11-09T10:15:23.966Z,106.90
2017-11-09T10:16:23.548Z,106.50
2017-11-09T10:17:23.927Z,105.20
2017-11-09T10:18:24.599Z,104.50
2017-11-09T10:19:24.312Z,112.40
2017-11-09T10:20:23.612Z,106.10
2017-11-09T10:21:24.035Z,100.80
2017-11-09T10:21:49.871Z,103.60
2017-11-09T10:22:49.946Z,106.20
2017-11-09T10:23:50.622Z,101.30
2017-11-09T10:24:50.352Z,102.20
2017-11-09T10:25:49.487Z,106.10
2017-11-09T10:26:49.334Z,111.30
2017-11-09T10:27:49.409Z,114.70
2017-11-09T10:28:50.828Z,106.30
2017-11-09T10:29:50.451Z,101.00
2017-11-09T10:30:49.408Z,103.90
2017-11-09T10:31:49.742Z,109.30
2017-11-09T10:32:50.226Z,101.30
2017-11-09T10:33:49.668Z,100.90
2017-11-09T10:34:50.583Z,102.10
2017-11-09T10:35:49.738Z,106.50
2017-11-09T10:36:49.928Z,101.90
2017-11-09T10:37:50.653Z,101.70
2017-11-09T10:38:50.246Z,103.50
2017-11-09T10:39:50.759Z,103.10
2017-11-09T10:40:49.819Z,101.70
2017-11-09T10:41:49.698Z,102.30
2017-11-09T10:42:50.451Z,97.80
2017-11-09T10:43:50.001Z,108.90
2017-11-09T10:44:49.697Z,103.20
2017-11-09T10:45:50.322Z,107.60
2017-11-09T10:46:49.456Z,96.00
2017-11-09T10:47:49.613Z,95.40
2017-11-09T10:48:50.228Z,95.00
2017-11-09T10:49:49.083Z,88.00
2017-11-09T10:50:49.416Z,92.90
2017-11-09T10:51:49.465Z,87.80
2017-11-09T10:52:50.004Z,76.10
2017-11-09T10:53:50.027Z,77.30
2017-11-09T10:54:49.996Z,79.10
2017-11-09T10:55:50.678Z,80.80
2017-11-09T10:56:49.722Z,77.90
2017-11-09T10:57:50.895Z,64.80
2017-11-09T10:58:50.604Z,69.40
2017-11-09T10:59:49.554Z,68.80
2017-11-09T11:00:50.374Z,71.70
2017-11-09T11:01:49.977Z,70.30
2017-11-09T11:02:50.012Z,72.00
2017-11-09T11:03:50.639Z,66.30
2017-11-09T11:04:49.850Z,65.70
2017-11-09T11:05:49.876Z,62.70
2017-11-09T11:06:51.931Z,67.00
2017-11-09T11:07:51.023Z,62.80
2017-11-09T11:08:51.788Z,64.90
2017-11-09T11:09:50.017Z,62.60
2017-11-09T11:10:50.057Z,63.10
2017-11-09T11:11:50.038Z,69.80
2017-11-09T11:12:50.688Z,72.40
2017-11-09T11:13:50.067Z,75.50
2017-11-09T11:14:49.095Z,65.00
2017-11-09T11:15:49.509Z,65.40
2017-11-09T11:16:49.714Z,71.70
2017-11-09T11:17:50.093Z,67.30
2017-11-09T11:18:50.024Z,73.90
2017-11-09T11:19:49.823Z,73.00
2017-11-09T11:20:50.229Z,76.00
2017-11-09T11:21:49.446Z,71.40
2017-11-09T11:22:50.472Z,72.40
2017-11-09T11:23:49.572Z,65.80
2017-11-09T11:24:50.373Z,69.70
2017-11-09T11:25:50.025Z,68.70
2017-11-09T11:26:49.235Z,66.80
2017-11-09T11:27:49.399Z,73.50
2017-11-09T11:28:50.056Z,72.00
2017-11-09T11:29:49.234Z,71.40
2017-11-09T11:30:49.312Z,69.40
2017-11-09T11:31:49.838Z,69.40
2017-11-09T11:32:50.411Z,72.60
2017-11-09T11:33:50.000Z,76.40
2017-11-09T11:34:50.489Z,70.80
2017-11-09T11:35:49.972Z,79.50
2017-11-09T11:36:50.671Z,71.30
2017-11-09T11:37:50.213Z,74.60
2017-11-09T11:38:50.028Z,72.60
2017-11-09T11:39:50.602Z,68.60
2017-11-09T11:40:49.803Z,73.40
2017-11-09T11:41:49.858Z,73.20
2017-11-09T11:42:49.919Z,71.10
2017-11-09T11:43:49.843Z,74.70
2017-11-09T11:44:50.218Z,75.30
2017-11-09T11:45:49.810Z,72.10
2017-11-09T11:46:50.968Z,64.90
2017-11-09T11:47:49.798Z,68.50
2017-11-09T11:48:50.279Z,74.60
2017-11-09T11:49:49.800Z,66.90
2017-11-09T11:50:49.644Z,70.70
2017-11-09T11:51:50.172Z,63.80
2017-11-09T11:52:49.882Z,60.80
2017-11-09T11:53:49.222Z,68.80
2017-11-09T11:54:49.705Z,68.40
2017-11-09T11:55:49.728Z,65.20
2017-11-09T11:56:50.291Z,69.20
2017-11-09T11:57:49.504Z,63.00
2017-11-09T11:58:49.529Z,63.50
2017-11-09T11:59:49.753Z,65.00
2017-11-09T12:00:50.144Z,63.70
2017-11-09T12:01:50.113Z,66.50
2017-11-09T12:02:50.008Z,63.90
2017-11-09T12:03:49.996Z,65.20
2017-11-09T12:04:50.451Z,63.50
2017-11-09T12:05:49.264Z,71.40
2017-11-09T12:06:49.272Z,74.50
2017-11-09T12:07:49.845Z,60.40
2017-11-09T12:08:49.989Z,69.30
2017-11-09T12:09:50.153Z,63.60
2017-11-09T12:10:49.073Z,66.80
2017-11-09T12:11:50.540Z,65.20
2017-11-09T12:12:50.152Z,65.30
2017-11-09T12:13:49.328Z,64.50
2017-11-09T12:14:49.341Z,63.10
2017-11-09T12:15:50.033Z,65.10
2017-11-09T12:16:50.056Z,66.10
2017-11-09T12:17:50.410Z,70.80
2017-11-09T12:18:49.220Z,65.80
2017-11-09T12:19:49.856Z,65.50
2017-11-09T12:20:49.998Z,65.60
2017-11-09T12:21:50.619Z,72.80
2017-11-09T12:22:50.332Z,67.60
2017-11-09T12:23:49.582Z,71.90
2017-11-09T12:24:49.998Z,67.20
2017-11-09T12:25:50.598Z,70.40
2017-11-09T12:26:50.431Z,73.30
2017-11-09T12:27:50.071Z,74.90
2017-11-09T12:28:49.582Z,68.60
2017-11-09T12:29:49.738Z,68.00
2017-11-09T12:30:49.878Z,68.40